createdAt,value
2023-04-12T00:00:11.928Z,8.68
2023-04-12T00:02:42.051Z,7.95
2023-04-12T00:05:11.546Z,7.07
2023-04-12T00:07:40.119Z,9.40
2023-04-12T00:10:09.367Z,9.40
2023-04-12T00:12:37.584Z,7.68
2023-04-12T00:15:08.513Z,5.90
2023-04-12T00:17:36.656Z,9.68
2023-04-12T00:20:07.452Z,5.90
2023-04-12T00:22:37.104Z,9.32
2023-04-12T00:25:05.747Z,7.07
2023-04-12T00:27:34.094Z,8.18
2023-04-12T00:30:02.505Z,6.80
2023-04-12T00:32:32.007Z,6.57
2023-04-12T00:35:00.341Z,9.82
2023-04-12T00:37:28.681Z,5.10
2023-04-12T00:39:56.827Z,7.35
2023-04-12T00:42:26.408Z,9.15
2023-04-12T00:44:54.495Z,6.70
2023-04-12T00:47:22.633Z,10.73
2023-04-12T00:49:52.413Z,5.57
2023-04-12T00:52:22.152Z,6.10
2023-04-12T00:54:52.131Z,11.40
2023-04-12T00:57:21.059Z,7.90
2023-04-12T00:59:49.422Z,7.05
2023-04-12T01:02:18.828Z,7.57
2023-04-12T01:04:50.568Z,8.05
2023-04-12T01:07:33.584Z,9.05
2023-04-12T01:10:10.686Z,6.20
2023-04-12T01:12:51.606Z,5.40
2023-04-12T01:15:20.990Z,5.63
2023-04-12T01:17:57.280Z,9.88
2023-04-12T01:20:30.761Z,7.82
2023-04-12T01:23:21.321Z,8.57
2023-04-12T01:26:06.349Z,6.55
2023-04-12T01:28:38.749Z,4.85
2023-04-12T01:31:09.362Z,6.35
2023-04-12T01:33:40.557Z,9.05
2023-04-12T01:36:13.252Z,6.75
2023-04-12T01:38:42.976Z,5.97
2023-04-12T01:41:13.687Z,9.27
2023-04-12T01:43:43.878Z,6.38
2023-04-12T01:46:12.902Z,8.25
2023-04-12T01:48:42.993Z,8.43
2023-04-12T01:51:19.904Z,6.75
2023-04-12T01:53:52.043Z,10.02
2023-04-12T01:56:23.358Z,11.63
2023-04-12T01:58:57.108Z,6.45
2023-04-12T02:01:29.433Z,5.15
2023-04-12T02:03:59.209Z,12.02
2023-04-12T02:06:29.159Z,9.45
2023-04-12T02:08:59.819Z,10.05
2023-04-12T02:11:27.905Z,6.90
2023-04-12T02:13:57.460Z,10.10
2023-04-12T02:16:29.633Z,7.13
2023-04-12T02:18:58.837Z,5.78
2023-04-12T02:21:27.743Z,8.30
2023-04-12T02:23:56.453Z,8.20
2023-04-12T02:26:24.652Z,10.70
2023-04-12T02:28:53.101Z,8.48
2023-04-12T02:31:23.679Z,8.48
2023-04-12T02:33:53.046Z,6.47
2023-04-12T02:36:22.012Z,5.97
2023-04-12T02:38:51.733Z,7.18
2023-04-12T02:41:21.370Z,8.05
2023-04-12T02:43:50.425Z,8.02
2023-04-12T02:46:23.300Z,7.97
2023-04-12T02:48:58.419Z,8.85
2023-04-12T02:51:35.291Z,8.48
2023-04-12T02:54:03.823Z,9.32
2023-04-12T02:56:44.000Z,8.23
2023-04-12T02:59:32.024Z,10.13
2023-04-12T03:02:15.229Z,7.10
2023-04-12T03:04:46.902Z,8.27
2023-04-12T03:07:20.111Z,8.20
2023-04-12T03:09:52.757Z,7.30
2023-04-12T03:12:23.890Z,8.88
2023-04-12T03:15:10.748Z,7.88
2023-04-12T03:17:39.355Z,7.18
2023-04-12T03:20:10.467Z,7.05
2023-04-12T03:22:44.171Z,9.40
2023-04-12T03:25:13.468Z,10.48
2023-04-12T03:30:21.532Z,8.32
2023-04-12T03:32:51.353Z,6.57
2023-04-12T03:35:21.596Z,7.72
2023-04-12T03:37:51.649Z,10.13
2023-04-12T03:40:20.008Z,7.72
2023-04-12T03:42:58.110Z,8.27
2023-04-12T03:45:27.624Z,8.40
2023-04-12T03:47:59.116Z,9.07
2023-04-12T03:50:31.811Z,10.95
2023-04-12T03:53:00.266Z,14.57
2023-04-12T03:55:32.509Z,10.65
2023-04-12T03:58:02.637Z,6.72
2023-04-12T04:00:35.799Z,8.13
2023-04-12T04:06:03.116Z,7.30
2023-04-12T04:08:33.791Z,11.77
2023-04-12T04:11:02.135Z,12.73
2023-04-12T04:13:37.992Z,8.82
2023-04-12T04:16:10.929Z,8.43
2023-04-12T04:18:41.469Z,12.02
2023-04-12T04:21:14.220Z,6.78
2023-04-12T04:23:44.619Z,11.05
2023-04-12T04:26:13.875Z,9.18
2023-04-12T04:28:50.297Z,9.38
2023-04-12T04:31:22.286Z,6.60
2023-04-12T04:33:52.130Z,8.98
2023-04-12T04:36:27.607Z,9.00
2023-04-12T04:38:57.499Z,10.85
2023-04-12T04:41:55.398Z,13.38
2023-04-12T04:44:35.403Z,9.88
2023-04-12T04:47:06.872Z,13.23
2023-04-12T04:49:35.881Z,12.18
2023-04-12T04:52:19.725Z,11.13
2023-04-12T04:54:49.680Z,12.52
2023-04-12T04:57:18.410Z,10.07
2023-04-12T04:59:46.803Z,13.52
2023-04-12T05:02:18.305Z,9.77
2023-04-12T05:04:49.744Z,10.73
2023-04-12T05:07:22.204Z,9.98
2023-04-12T05:09:50.933Z,11.48
2023-04-12T05:12:20.904Z,12.40
2023-04-12T05:15:01.207Z,8.07
2023-04-12T05:17:37.144Z,8.35
2023-04-12T05:20:08.299Z,14.02
2023-04-12T05:22:38.217Z,7.85
2023-04-12T05:25:07.714Z,10.45
2023-04-12T05:27:41.801Z,12.02
2023-04-12T05:30:12.586Z,12.13
2023-04-12T05:32:40.892Z,10.55
2023-04-12T05:35:10.309Z,10.75
2023-04-12T05:37:42.090Z,8.38
2023-04-12T05:40:11.451Z,8.88
2023-04-12T05:42:39.549Z,8.18
2023-04-12T05:45:08.360Z,11.10
2023-04-12T05:47:38.086Z,14.07
2023-04-12T05:50:07.857Z,8.00
2023-04-12T05:52:37.690Z,9.25
2023-04-12T05:55:09.628Z,8.13
2023-04-12T06:00:13.414Z,8.48
2023-04-12T06:02:44.831Z,9.90
2023-04-12T06:05:13.323Z,11.23
2023-04-12T06:07:42.113Z,9.82
2023-04-12T06:10:12.910Z,10.98
2023-04-12T06:12:41.221Z,6.55
2023-04-12T06:15:10.207Z,10.45
2023-04-12T06:17:38.732Z,11.10
2023-04-12T06:20:09.383Z,9.82
2023-04-12T06:22:39.403Z,7.00
2023-04-12T06:25:09.399Z,8.07
2023-04-12T06:27:39.036Z,9.43
2023-04-12T06:30:09.381Z,6.13
2023-04-12T06:32:38.522Z,7.50
2023-04-12T06:35:08.064Z,9.10
2023-04-12T06:37:36.516Z,8.88
2023-04-12T06:40:04.978Z,7.25
2023-04-12T06:42:33.174Z,9.77
2023-04-12T06:45:03.004Z,7.70
2023-04-12T06:47:33.169Z,11.18
2023-04-12T06:50:01.427Z,10.38
2023-04-12T06:52:29.948Z,11.80
2023-04-12T06:54:58.487Z,7.70
2023-04-12T06:57:26.790Z,8.15
2023-04-12T06:59:55.075Z,11.38
2023-04-12T07:02:24.562Z,7.90
2023-04-12T07:04:54.504Z,6.20
2023-04-12T08:53:27.935Z,7.50
2023-04-12T08:55:57.170Z,12.20
2023-04-12T08:58:52.207Z,11.95
2023-04-12T09:01:22.235Z,8.77
2023-04-12T09:03:50.530Z,12.85
2023-04-12T09:06:18.762Z,9.57
2023-04-12T09:08:55.921Z,11.32
2023-04-12T09:11:25.990Z,10.68
2023-04-12T09:16:56.392Z,13.18
2023-04-12T09:19:34.106Z,10.82
2023-04-12T09:22:03.420Z,9.57
2023-04-12T09:24:47.528Z,7.60
2023-04-12T09:27:16.061Z,7.13
2023-04-12T09:29:45.574Z,6.53
2023-04-12T09:32:13.844Z,9.45
2023-04-12T09:34:57.014Z,6.63
2023-04-12T09:37:26.204Z,6.88
2023-04-12T09:43:11.298Z,7.50
2023-04-12T09:45:39.923Z,7.50
2023-04-12T09:48:09.037Z,8.63
2023-04-12T09:50:37.298Z,8.60
2023-04-12T09:53:16.807Z,6.00
2023-04-12T09:55:47.718Z,6.93
2023-04-12T09:58:21.444Z,6.15
2023-04-12T10:00:50.170Z,8.88
2023-04-12T10:03:20.017Z,10.07
2023-04-12T10:08:52.065Z,8.75
2023-04-12T10:11:21.572Z,6.53
2023-04-12T10:13:50.646Z,7.93
2023-04-12T10:16:22.247Z,5.82
2023-04-12T10:18:53.129Z,6.75
2023-04-12T10:21:22.510Z,8.70
2023-04-12T10:23:51.636Z,7.72
2023-04-12T10:26:21.511Z,7.47
2023-04-12T10:29:23.711Z,5.72
2023-04-12T10:31:52.139Z,8.32
2023-04-12T10:34:25.413Z,9.95
2023-04-12T10:36:55.520Z,9.03
2023-04-12T10:39:39.166Z,9.32
2023-04-12T10:42:23.768Z,11.32
2023-04-12T10:45:21.782Z,8.43
2023-04-12T10:48:03.841Z,9.85
2023-04-12T10:56:39.869Z,10.65
2023-04-12T10:59:11.488Z,5.97
2023-04-12T11:01:43.990Z,9.10
2023-04-12T11:04:20.610Z,6.85
2023-04-12T11:07:25.049Z,12.10
2023-04-12T11:10:01.105Z,7.60
2023-04-12T11:12:35.361Z,9.68
2023-04-12T11:15:06.196Z,9.07
2023-04-12T11:18:08.259Z,9.45
2023-04-12T11:20:36.936Z,8.23
2023-04-12T11:23:06.108Z,6.43
2023-04-12T11:25:34.776Z,7.32
2023-04-12T11:28:05.384Z,11.35
2023-04-12T11:33:37.528Z,6.85
2023-04-12T11:36:07.476Z,9.95
2023-04-12T11:38:38.212Z,10.15
2023-04-12T11:41:09.075Z,14.50
2023-04-12T11:43:38.538Z,12.75
2023-04-12T11:46:08.701Z,18.77
2023-04-12T11:48:38.517Z,15.00
2023-04-12T11:51:20.681Z,14.18
2023-04-12T11:53:53.874Z,14.32
2023-04-12T11:56:22.503Z,12.88
2023-04-12T11:58:51.022Z,17.65
2023-04-12T12:01:22.216Z,11.15
2023-04-12T12:03:51.482Z,17.98
2023-04-12T12:06:21.761Z,15.13
2023-04-12T12:08:51.988Z,15.63
2023-04-12T12:11:21.592Z,14.10
2023-04-12T12:13:51.483Z,13.73
2023-04-12T12:16:25.682Z,16.05
2023-04-12T12:18:54.285Z,13.65
2023-04-12T12:21:22.766Z,18.73
2023-04-12T12:23:51.240Z,14.50
2023-04-12T12:26:23.678Z,18.50
2023-04-12T12:28:52.619Z,21.05
2023-04-12T12:31:23.970Z,20.65
2023-04-12T12:33:57.035Z,16.95
2023-04-12T12:36:32.979Z,19.90
2023-04-12T12:39:06.815Z,15.75
2023-04-12T12:41:35.559Z,16.95
2023-04-12T12:44:03.883Z,14.10
2023-04-12T12:46:44.671Z,22.58
2023-04-12T12:49:20.072Z,13.40
2023-04-12T12:51:48.171Z,18.83
2023-04-12T12:54:28.477Z,17.48
2023-04-12T12:57:07.837Z,16.50
2023-04-12T12:59:35.980Z,18.13
2023-04-12T13:02:07.322Z,16.13
2023-04-12T13:04:35.764Z,18.33
2023-04-12T13:07:04.065Z,17.48
2023-04-12T13:09:33.631Z,23.60
2023-04-12T13:12:03.360Z,26.88
2023-04-12T13:14:31.702Z,17.73
2023-04-12T13:16:59.745Z,25.05
2023-04-12T13:19:29.512Z,23.10
2023-04-12T13:21:57.740Z,27.70
2023-04-12T13:24:25.831Z,24.13
2023-04-12T13:26:55.879Z,27.35
2023-04-12T13:29:23.993Z,29.27
2023-04-12T13:31:52.236Z,28.17
2023-04-12T13:34:20.634Z,20.88
2023-04-12T13:36:50.728Z,29.40
2023-04-12T13:39:19.232Z,30.20
2023-04-12T13:41:47.255Z,29.33
2023-04-12T13:44:15.449Z,32.92
2023-04-12T13:46:43.835Z,25.80
2023-04-12T13:49:12.574Z,26.00
2023-04-12T13:51:40.994Z,25.88
2023-04-12T13:54:10.349Z,20.10
2023-04-12T13:56:38.575Z,26.50
2023-04-12T13:59:07.067Z,25.55
2023-04-12T14:01:35.566Z,21.55
2023-04-12T14:04:03.965Z,17.23
2023-04-12T14:06:32.804Z,13.50
2023-04-12T14:09:01.122Z,13.50
2023-04-12T14:11:30.743Z,9.82
2023-04-12T14:14:00.830Z,9.77
2023-04-12T14:16:29.242Z,16.75
2023-04-12T14:18:57.523Z,14.43
2023-04-12T14:21:29.015Z,13.23
2023-04-12T14:23:57.666Z,12.93
2023-04-12T14:26:26.173Z,13.75
2023-04-12T14:28:57.881Z,15.75
2023-04-12T14:31:26.140Z,11.35
2023-04-12T14:33:54.404Z,8.20
2023-04-12T14:36:22.625Z,8.43
2023-04-12T14:38:51.064Z,12.25
2023-04-12T14:41:19.218Z,10.32
2023-04-12T14:43:47.440Z,12.70
2023-04-12T14:46:17.909Z,13.13
2023-04-12T14:48:46.425Z,12.40
2023-04-12T14:51:14.511Z,11.50
2023-04-12T14:53:43.396Z,10.18
2023-04-12T14:56:24.003Z,31.05
2023-04-12T14:58:54.179Z,16.75
2023-04-12T15:01:25.445Z,10.63
2023-04-12T15:03:54.278Z,9.23
2023-04-12T15:06:26.175Z,9.75
2023-04-12T15:08:55.420Z,4.85
2023-04-12T15:11:27.283Z,8.73
2023-04-12T15:13:56.300Z,5.30
2023-04-12T15:16:26.423Z,3.58
2023-04-12T15:18:54.899Z,8.43
2023-04-12T15:21:23.277Z,4.18
2023-04-12T15:23:51.469Z,21.02
2023-04-12T15:26:19.497Z,10.07
2023-04-12T15:28:47.880Z,4.13
2023-04-12T15:31:16.155Z,4.60
2023-04-12T15:33:46.963Z,7.65
2023-04-12T15:36:16.901Z,14.07
2023-04-12T15:38:45.337Z,5.68
2023-04-12T15:41:13.565Z,6.70
2023-04-12T15:43:45.209Z,6.15
2023-04-12T15:46:15.169Z,10.23
2023-04-12T15:48:45.004Z,5.25
2023-04-12T15:51:13.844Z,5.40
2023-04-12T15:53:43.481Z,7.72
2023-04-12T15:56:13.636Z,7.97
2023-04-12T15:58:41.722Z,6.68
2023-04-12T16:01:10.018Z,7.65
2023-04-12T16:03:38.285Z,7.28
2023-04-12T16:06:08.634Z,8.02
2023-04-12T16:08:36.912Z,8.85
2023-04-12T16:11:06.119Z,8.43
2023-04-12T16:13:34.193Z,7.18
2023-04-12T16:16:02.287Z,7.35
2023-04-12T16:18:30.844Z,9.20
2023-04-12T16:20:58.984Z,9.70
2023-04-12T16:23:29.490Z,8.57
2023-04-12T16:25:59.902Z,12.52
2023-04-12T16:28:28.267Z,14.50
2023-04-12T16:30:58.183Z,12.73
2023-04-12T16:33:27.257Z,11.52
2023-04-12T16:35:55.530Z,12.70
2023-04-12T16:38:23.712Z,14.85
2023-04-12T16:40:53.470Z,13.90
2023-04-12T16:43:21.495Z,18.85
2023-04-12T16:45:49.528Z,23.15
2023-04-12T16:51:09.526Z,27.67
2023-04-12T16:53:37.657Z,21.55
2023-04-12T16:56:08.363Z,17.98
2023-04-12T16:58:37.035Z,18.00
2023-04-12T17:01:05.247Z,14.00
2023-04-12T17:03:34.578Z,15.82
2023-04-12T17:06:03.157Z,16.02
2023-04-12T17:08:31.222Z,13.15
2023-04-12T17:10:59.643Z,18.55
2023-04-12T17:13:31.105Z,19.48
2023-04-12T17:15:59.247Z,19.15
2023-04-12T17:18:27.332Z,19.25
2023-04-12T17:20:56.011Z,28.42
2023-04-12T17:23:24.130Z,27.58
2023-04-12T17:25:52.352Z,36.22
2023-04-12T17:28:20.554Z,26.67
2023-04-12T17:30:50.008Z,25.25
2023-04-12T17:33:18.924Z,26.98
2023-04-12T17:35:47.929Z,29.60
2023-04-12T17:38:16.009Z,32.10
2023-04-12T17:40:44.325Z,33.30
2023-04-12T17:43:12.540Z,35.88
2023-04-12T17:45:40.742Z,30.75
2023-04-12T17:48:14.552Z,23.63
2023-04-12T17:50:45.152Z,27.23
2023-04-12T17:53:13.476Z,33.00
2023-04-12T17:55:42.605Z,23.35
2023-04-12T17:58:10.660Z,29.83
2023-04-12T18:00:38.951Z,30.13
2023-04-12T18:03:07.799Z,35.20
2023-04-12T18:05:37.413Z,27.05
2023-04-12T18:08:06.112Z,32.47
2023-04-12T18:10:34.621Z,31.08
2023-04-12T18:13:03.019Z,35.15
2023-04-12T18:15:31.262Z,35.28
2023-04-12T18:18:00.635Z,28.63
2023-04-12T18:20:29.325Z,33.33
2023-04-12T18:22:58.718Z,39.35
2023-04-12T18:25:26.961Z,35.53
2023-04-12T18:27:55.561Z,30.73
2023-04-12T18:30:23.956Z,33.78
2023-04-12T18:32:52.536Z,28.42
2023-04-12T18:35:20.904Z,29.58
2023-04-12T18:37:48.997Z,26.92
2023-04-12T18:40:19.006Z,23.35
2023-04-12T18:42:47.067Z,28.17
2023-04-12T18:45:15.137Z,33.67
2023-04-12T18:47:44.941Z,35.97
2023-04-12T18:50:14.054Z,23.48
2023-04-12T18:52:42.368Z,23.20
2023-04-12T18:55:10.977Z,28.27
2023-04-12T18:57:40.412Z,20.52
2023-04-12T19:00:14.466Z,26.58
2023-04-12T19:02:42.835Z,29.75
2023-04-12T19:05:12.016Z,38.90
2023-04-12T19:07:40.714Z,39.67
2023-04-12T19:10:09.927Z,23.67
2023-04-12T19:12:38.001Z,21.25
2023-04-12T19:15:09.648Z,17.67
2023-04-12T19:17:38.975Z,15.55
2023-04-12T19:20:08.882Z,17.55
2023-04-12T19:22:37.302Z,20.88
2023-04-12T19:25:06.078Z,14.07
2023-04-12T19:27:34.131Z,16.13
2023-04-12T19:30:03.977Z,14.38
2023-04-12T19:32:33.472Z,12.15
2023-04-12T19:35:01.595Z,15.68
2023-04-12T19:37:33.943Z,18.95
2023-04-12T19:40:02.319Z,25.67
2023-04-12T19:42:30.747Z,31.33
2023-04-12T19:45:00.802Z,30.25
2023-04-12T19:47:29.045Z,34.10
2023-04-12T19:49:58.746Z,34.65
2023-04-12T19:52:28.384Z,41.47
2023-04-12T19:54:57.135Z,28.58
2023-04-12T19:57:25.193Z,33.33
2023-04-12T19:59:53.590Z,27.02
2023-04-12T20:02:21.683Z,29.48
2023-04-12T20:04:50.154Z,42.88
2023-04-12T20:07:19.817Z,37.80
2023-04-12T20:09:47.897Z,49.17
2023-04-12T20:12:16.672Z,51.13
2023-04-12T20:14:45.101Z,53.45
2023-04-12T20:17:13.155Z,48.60
2023-04-12T20:19:42.196Z,49.72
2023-04-12T20:22:10.300Z,48.75
2023-04-12T20:24:39.680Z,44.95
2023-04-12T20:27:08.681Z,50.60
2023-04-12T20:29:38.288Z,63.58
2023-04-12T20:32:06.735Z,48.20
2023-04-12T20:34:34.819Z,60.90
2023-04-12T20:37:03.281Z,49.08
2023-04-12T20:39:31.723Z,57.42
2023-04-12T20:42:01.410Z,51.53
2023-04-12T20:44:30.286Z,63.30
2023-04-12T20:46:58.851Z,55.45
2023-04-12T20:49:27.463Z,49.28
2023-04-12T20:51:56.985Z,60.38
2023-04-12T20:54:26.194Z,66.28
2023-04-12T20:56:55.226Z,63.05
2023-04-12T20:59:24.635Z,67.45
2023-04-12T21:01:54.557Z,76.40
2023-04-12T21:04:22.780Z,67.57
2023-04-12T21:06:55.417Z,83.50
2023-04-12T21:09:24.406Z,91.10
2023-04-12T21:11:53.360Z,81.47
2023-04-12T21:14:21.491Z,78.57
2023-04-12T21:16:51.053Z,72.10
2023-04-12T21:19:19.777Z,75.15
2023-04-12T21:21:48.196Z,78.00
2023-04-12T21:24:17.144Z,80.55
2023-04-12T21:26:45.517Z,61.50
2023-04-12T21:29:14.090Z,67.15
2023-04-12T21:31:42.286Z,91.70
2023-04-12T21:34:12.318Z,96.80
2023-04-12T21:36:40.781Z,105.22
2023-04-12T21:39:08.856Z,96.18
2023-04-12T21:41:37.467Z,77.82
2023-04-12T21:44:05.788Z,100.78
2023-04-12T21:46:33.854Z,109.65
2023-04-12T21:49:01.968Z,110.85
2023-04-12T21:51:32.155Z,102.63
2023-04-12T21:54:00.392Z,107.90
2023-04-12T21:56:28.738Z,114.43
2023-04-12T21:59:00.211Z,125.38
2023-04-12T22:01:28.479Z,118.00
2023-04-12T22:03:57.228Z,130.30
2023-04-12T22:06:25.972Z,113.63
2023-04-12T22:08:55.555Z,104.38
2023-04-12T22:11:23.739Z,100.70
2023-04-12T22:13:53.275Z,112.45
2023-04-12T22:16:24.350Z,134.10
2023-04-12T22:18:52.784Z,114.78
2023-04-12T22:21:21.133Z,127.53
2023-04-12T22:23:50.435Z,125.90
2023-04-12T22:26:20.079Z,149.10
2023-04-12T22:28:49.994Z,131.32
2023-04-12T22:31:22.208Z,140.85
2023-04-12T22:33:55.119Z,137.25
2023-04-12T22:36:28.640Z,113.43
2023-04-12T22:38:57.896Z,131.82
2023-04-12T22:41:28.297Z,149.10
2023-04-12T22:44:03.019Z,161.10
2023-04-12T22:46:32.288Z,145.90
2023-04-12T22:49:01.568Z,168.63
2023-04-12T22:51:30.345Z,175.25
2023-04-12T22:53:58.518Z,156.65
2023-04-12T22:56:29.142Z,177.27
2023-04-12T22:58:59.980Z,188.00
2023-04-12T23:01:29.284Z,186.82
2023-04-12T23:04:00.688Z,171.43
2023-04-12T23:06:29.843Z,186.70
2023-04-12T23:08:58.730Z,189.65
2023-04-12T23:11:29.061Z,172.18
2023-04-12T23:13:58.084Z,173.50
2023-04-12T23:16:26.617Z,164.05
2023-04-12T23:18:54.912Z,169.75
2023-04-12T23:21:22.928Z,185.25
2023-04-12T23:23:52.546Z,164.98
2023-04-12T23:26:21.441Z,182.18
2023-04-12T23:28:50.943Z,191.90
2023-04-12T23:31:19.018Z,183.27
2023-04-12T23:33:47.444Z,187.45
2023-04-12T23:36:16.376Z,184.55
2023-04-12T23:38:46.710Z,191.43
2023-04-12T23:41:15.327Z,173.68
2023-04-12T23:43:43.376Z,183.07
2023-04-12T23:46:13.074Z,180.02
2023-04-12T23:48:41.641Z,188.82
2023-04-12T23:51:09.690Z,192.90
2023-04-12T23:53:38.494Z,177.23
2023-04-12T23:56:08.220Z,216.38
2023-04-12T23:58:36.605Z,199.80
